Monee Bult Field (C56)
Monee, Il
Field Elevation: 790
Lat: 41°22.64N  Long: 87°40.87W
CTAF/Unicom Freq: 123.0000
   
    
Weather Advisories
2024-06-17   18:05 Z
Altimeter 29.99" Hg
Wind 210° @ 13 KT
Gusts 19 KT
Visibility 9 SM
Ceiling FEW060 SCT076
Temperature 33° C (91° F)
Dewpoint 21° C (70° F)
Relative Humidity 48%
Density Altitude 2,900 feet
Condensation Altitude 6,900 feet
Heat Index: 36° C (97° F)
Wind and Runways
Indicated Runway = 27
Headwind = 6 kt
Crosswind = 11 kt
History
 
 
 
More Info
 
NOAA Forecast
 
Airport IQ 5010
 
about Optical Scientific
 
FAA Disclaimer: The data displayed is for advisory purposes only and is not to be used for flight planning or operations. For official data, please call (not available) to hear the current automated AWOS voice message.
  METAR C56 171805Z AUTO 21013G19KT 9 SM FEW060 SCT076 33/21 A2999